Tiempo atmosférico en la estación meteorológica de Alconchel, Badajoz (170 m.)



Fecha
DESCASC
Temp. máxima en grados centígrados (hora)
DESCASC
Temp. mínima en grados centígrados (hora)
DESCASC
Temp. media en grados centígrados
DESCASC
Racha de viento máxima en m/sg (hora)
DESCASC
Velocidad máxima media en intervalos de 10 minutos(hora)
DESCASC
Precipitaciones diarias en mm
DESCASC
Precipitaciones de 00:00 a 06:00 en mm
DESCASC
Precipitaciones de 06:00 a 12:00 en mm
DESCASC
Precipitaciones de 12:00 a 18:00 en mm
DESCASC
Precipitaciones de 18:00 a 24:00 en mm
DESCASC
20-09-2018 33.8 (17:50) 18.5 (08:20) 26.1 9.17 (22:50) 6.11 (22:50) 0 0 0 0 0
19-09-2018 34 (18:30) 17 (08:10) 25.5 4.72 (00:10) 3.33 (00:20) 0 0 0 0 0
18-09-2018 33.4 (16:40) 18.7 (08:30) 26.1 7.22 (18:50) 4.72 (19:20) 0 0 0 0 0
17-09-2018 33.2 (16:20) 20 (08:20) 26.6 12.22 (17:00) 7.5 (17:10) 0 0 0 0 0
16-09-2018 33.5 (17:30) 20 (00:00) 26.8 8.33 (17:50) 4.44 (00:10) 0.6 0 0 0.6 0
15-09-2018 32.2 (18:50) 19.3 (00:00) 25.8 8.33 (17:10) 4.72 (17:00) 0.2 0.2 0 0 0
14-09-2018 36 (16:30) 18.8 (00:00) 27.4 15 (21:40) 9.17 (21:40) 6.6 0 0 0 6.6
13-09-2018 35.5 (17:30) 19.5 (00:00) 27.5 6.94 (21:50) 4.17 (18:50) 0 0 0 0 0
12-09-2018 35.6 (18:10) 20.2 (00:00) 27.9 7.78 (02:00) 5.28 (02:00) 0 0 0 0 0
11-09-2018 33.7 (17:30) 18.6 (00:00) 26.2 8.89 (13:50) 5.56 (17:40) 0 0 0 0 0
10-09-2018 32.7 (16:50) 16.6 (00:00) 24.7 10.83 (17:20) 6.11 (15:30) 0 0 0 0 0
09-09-2018 31.2 (17:20) 15.5 (00:00) 23.4 7.5 (17:40) 4.17 (17:40) 0 0 0 0 0
08-09-2018 27.5 (18:20) 16 (00:00) 21.8 8.89 (17:20) 6.39 (13:50) 0 0 0 0 0
07-09-2018 29.9 (18:30) 14.7 (00:00) 22.3 10.56 (20:00) 7.22 (20:00) 0 0 0 0 0
06-09-2018 28.7 (18:20) 16.6 (00:00) 22.7 6.11 (21:50) 4.17 (01:30) 0 0 0 0 0
05-09-2018 26.9 (15:10) 19.9 (00:00) 23.4 8.89 (21:10) 5.83 (21:30) 0 0 0 0 0
04-09-2018 27.4 (18:00) 17.6 (00:00) 22.5 11.11 (21:20) 7.5 (21:20) 0 0 0 0 0
03-09-2018 29.1 (19:10) 20.3 (00:00) 24.7 10 (21:50) 6.94 (21:50) 0 0 0 0 0
02-09-2018 35.8 (16:00) 21.5 (00:00) 28.6 9.72 (19:20) 6.67 (19:50) 0 0 0 0 0
01-09-2018 38.6 (16:50) 21.7 (00:00) 30.1 10 (20:00) 6.67 (20:20) 0 0 0 0 0
31-08-2018 38.3 (17:20) 19.1 (00:00) 28.7 9.72 (16:50) 5.28 (16:10) 0 0 0 0 0
30-08-2018 35.6 (17:20) 15.6 (00:00) 25.6 8.33 (22:40) 5 (22:40) 0 0 0 0 0
29-08-2018 32.3 (17:50) 17.6 (00:00) 24.9 7.78 (19:10) 5 (20:50) 0 0 0 0 0
28-08-2018 31.7 (17:40) 19.7 (00:00) 25.7 10.28 (02:40) 7.22 (02:40) 0 0 0 0 0
27-08-2018 38.5 (19:10) 19 (00:00) 28.8 12.5 (22:00) 8.06 (22:00) 0 0 0 0 0
26-08-2018 37.4 (18:00) 15.2 (00:00) 26.3 6.67 (00:40) 5 (15:50) 0 0 0 0 0
25-08-2018 37.5 (16:50) 18 (00:00) 27.8 8.33 (19:00) 5.28 (18:50) 0 0 0 0 0

Gráficas

Temp. máximas Temp. mínimas Temp. medias Precipitaciones Rachas de viento máximas Velocidades máximas media en intervalos de 10 minutos

Datos horarios

Fecha y hora oficial Temperatura (ºC) Velocidad del viento (km/h) Dirección del viento Racha (km/h) Dirección de racha Precipitación (mm) Presión (hPa) Tendencia (hPa) Humedad (%)
2018-09-23 23:00:00 29.6 17 Norte 25 Norte 0 -- -- 32
2018-09-23 22:00:00 31.3 12 Nordeste 13 Nordeste 0 -- -- 29
2018-09-23 21:00:00 32.1 11 Nordeste 14 Nordeste 0 -- -- 28
2018-09-23 20:00:00 35.1 10 Nordeste 27 Nordeste 0 -- -- 24
2018-09-23 19:00:00 36.3 14 Nordeste 27 Nordeste 0 -- -- 23
2018-09-23 18:00:00 37 14 Este 27 Este 0 -- -- 23
2018-09-23 17:00:00 37.2 13 Nordeste 29 Este 0 -- -- 22
2018-09-23 16:00:00 36.8 15 Nordeste 31 Nordeste 0 -- -- 23
2018-09-23 15:00:00 36.4 14 Nordeste 27 Nordeste 0 -- -- 24
2018-09-23 14:00:00 35.5 12 Norte 21 Norte 0 -- -- 26
2018-09-23 13:00:00 33 8 Norte 17 Norte 0 -- -- 31
2018-09-23 12:00:00 30.4 8 Norte 15 Nordeste 0 -- -- 34
2018-09-23 11:00:00 27.6 6 Nordeste 8 Nordeste 0 -- -- 42
2018-09-23 10:00:00 22.9 3 Noroeste 6 Sudeste 0 -- -- 58
2018-09-23 09:00:00 20.9 0 Calma 5 Nordeste 0 -- -- 60
2018-09-23 08:00:00 20.5 0 Calma 6 Sudeste 0 -- -- 59
2018-09-23 07:00:00 21.4 4 Sudeste 6 Sudeste 0 -- -- 57
2018-09-23 06:00:00 22.1 5 Este 10 Nordeste 0 -- -- 54
2018-09-23 05:00:00 22.4 7 Sudeste 9 Este 0 -- -- 54
2018-09-23 04:00:00 23.9 6 Este 9 Este 0 -- -- 48
2018-09-23 03:00:00 24.9 5 Sudeste 12 Sudeste 0 -- -- 45
2018-09-23 02:00:00 26 8 Sudeste 18 Sudeste 0 -- -- 43
2018-09-23 01:00:00 26.7 11 Sudeste 16 Sudeste 0 -- -- 43
2018-09-23 00:00:00 28.2 11 Este 19 Este 0 -- -- 38
2018-09-22 23:00:00 30.1 15 Este 17 Este 0 -- -- 35
2018-09-22 22:00:00 31.5 12 Nordeste 18 Nordeste 0 -- -- 33
2018-09-22 21:00:00 31.2 10 Nordeste 20 Nordeste 0 -- -- 34
2018-09-22 20:00:00 34.2 12 Norte 23 Nordeste 0 -- -- 29
2018-09-22 19:00:00 35.7 13 Norte 28 Norte 0 -- -- 27
2018-09-22 18:00:00 36.3 17 Norte 27 Norte 0 -- -- 25
2018-09-22 17:00:00 36.3 9 Norte 22 Oeste 0 -- -- 26
2018-09-22 16:00:00 36.5 12 Oeste 24 Oeste 0 -- -- 26
2018-09-22 15:00:00 35.1 11 Oeste 16 Noroeste 0 -- -- 29
2018-09-22 14:00:00 34.1 12 Oeste 18 Oeste 0 -- -- 30
2018-09-22 13:00:00 33 8 Norte 19 Nordeste 0 -- -- 33
2018-09-22 12:00:00 30 4 Este 11 Nordeste 0 -- -- 38
2018-09-22 11:00:00 25.6 4 Nordeste 12 Nordeste 0 -- -- 51
2018-09-22 10:00:00 21.3 5 Nordeste 11 Nordeste 0 -- -- 68
2018-09-22 09:00:00 18 0 Calma 8 Nordeste 0 -- -- 81
2018-09-22 08:00:00 17.7 3 Este 5 Este 0 -- -- 81
2018-09-22 07:00:00 18.6 3 Nordeste 6 Norte 0 -- -- 77
2018-09-22 06:00:00 19.4 5 Nordeste 14 Nordeste 0 -- -- 74
2018-09-22 05:00:00 20 2 Nordeste 5 Norte 0 -- -- 71
2018-09-22 04:00:00 20.6 0 Calma 7 Este 0 -- -- 67
2018-09-22 03:00:00 21.7 6 Nordeste 7 Nordeste 0 -- -- 63
2018-09-22 02:00:00 22.6 2 Este -- -- 0 -- -- 55
2018-09-22 01:00:00 23.2 4 Norte 12 Norte 0 -- -- 52
2018-09-22 00:00:00 24.4 6 Norte 14 Norte 0 -- -- 45
2018-09-21 23:00:00 26.2 10 Norte 24 Norte 0 -- -- 39
2018-09-21 22:00:00 27.8 15 Norte 31 Norte 0 -- -- 35
2018-09-21 21:00:00 29.5 11 Norte 18 Norte 0 -- -- 31
2018-09-21 20:00:00 31.7 9 Norte 15 Norte 0 -- -- 28
2018-09-21 19:00:00 33.1 7 Norte 13 Norte 0 -- -- 25
2018-09-21 18:00:00 34.3 6 Oeste 13 Oeste 0 -- -- 25
2018-09-21 17:00:00 34.3 9 Oeste 18 Oeste 0 -- -- 26
2018-09-21 16:00:00 33.5 12 Oeste 17 Sudoeste 0 -- -- 25
2018-09-21 15:00:00 31.5 11 Oeste 18 Oeste 0 -- -- 30
2018-09-21 14:00:00 30.7 9 Oeste 17 Sudoeste 0 -- -- 33
2018-09-21 13:00:00 28.1 6 Nordeste 18 Nordeste 0 -- -- 35
2018-09-21 12:00:00 24.8 5 Norte 14 Norte 0 -- -- 48
2018-09-21 11:00:00 21 9 Norte 14 Norte 0 -- -- 62
2018-09-21 10:00:00 18.8 5 Norte 10 Noroeste 0 -- -- 74
2018-09-21 09:00:00 16.5 3 Norte 7 Norte 0 -- -- 81
2018-09-21 08:00:00 16.3 4 Sudeste 6 Sudeste 0 -- -- 79
2018-09-21 07:00:00 17.1 4 Este 10 Norte 0 -- -- 78
2018-09-21 06:00:00 17.7 9 Norte 19 Norte 0 -- -- 76
2018-09-21 05:00:00 17.8 9 Norte 18 Norte 0 -- -- 73
2018-09-21 04:00:00 19.3 0 Calma 9 Norte 0 -- -- 65
2018-09-21 03:00:00 20.3 3 Norte 13 Norte 0 -- -- 60
2018-09-21 02:00:00 21.6 8 Norte 20 Norte 0 -- -- 56
2018-09-21 01:00:00 23.2 10 Norte 22 Norte 0 -- -- 50
2018-09-21 00:00:00 24.8 11 Norte 30 Norte 0 -- -- 41
2018-09-20 23:00:00 26.2 22 Norte 33 Norte 0 -- -- 40
2018-09-20 22:00:00 27.8 14 Norte 31 Norte 0 -- -- 37
2018-09-20 21:00:00 29.3 13 Norte 19 Norte 0 -- -- 35
2018-09-20 20:00:00 31.7 13 Norte 20 Noroeste 0 -- -- 32
2018-09-20 19:00:00 32.7 13 Noroeste 19 Norte 0 -- -- 30
2018-09-20 18:00:00 33.7 12 Sudoeste 15 Sudoeste 0 -- -- 31
2018-09-20 17:00:00 33.5 13 Sudoeste 18 Sudoeste 0 -- -- 30
2018-09-20 16:00:00 32.8 11 Sudoeste 16 Sudoeste 0 -- -- 28
2018-09-20 15:00:00 32.1 5 Oeste 18 Oeste 0 -- -- 30
2018-09-20 14:00:00 30.5 13 Oeste 20 Oeste 0 -- -- 40
2018-09-20 13:00:00 28.7 13 Oeste 18 Sudoeste 0 -- -- 47
2018-09-20 12:00:00 27.1 5 Sudoeste 11 Sudoeste 0 -- -- 50
2018-09-20 11:00:00 24.1 6 Sudoeste 11 Sur 0 -- -- 57
2018-09-20 10:00:00 22.2 5 Sur 8 Sur 0 -- -- 62
2018-09-20 09:00:00 19.4 2 Sudeste 6 Sudeste 0 -- -- 72
2018-09-20 08:00:00 18.8 5 Nordeste 9 Este 0 -- -- 72
2018-09-20 07:00:00 19.2 4 Nordeste 9 Nordeste 0 -- -- 69
2018-09-20 06:00:00 20.3 4 Norte 6 Noroeste 0 -- -- 64
2018-09-20 05:00:00 21 0 Calma 13 Nordeste 0 -- -- 61
2018-09-20 04:00:00 21 8 Nordeste 12 Nordeste 0 -- -- 60
2018-09-20 03:00:00 22 4 Este 9 Sudeste 0 -- -- 53
2018-09-20 02:00:00 22.6 3 Sudeste 10 Sudeste 0 -- -- 50
2018-09-20 01:00:00 23.6 5 Norte 9 Noroeste 0 -- -- 48
2018-09-20 00:00:00 24.8 4 Nordeste 15 Norte 0 -- -- 45
2018-09-19 23:00:00 26.1 9 Norte 17 Norte 0 -- -- 41
2018-09-19 22:00:00 27.7 10 Norte 15 Norte 0 -- -- 38
2018-09-19 21:00:00 29.8 9 Norte 14 Norte 0 -- -- 34
2018-09-19 20:00:00 32.1 9 Norte 14 Norte 0 -- -- 31
2018-09-19 19:00:00 33.9 5 Oeste 13 Sudoeste 0 -- -- 30
2018-09-19 18:00:00 33.7 8 Sudoeste 15 Oeste 0 -- -- 30
2018-09-19 17:00:00 33.3 10 Sudoeste 15 Sudoeste 0 -- -- 30
2018-09-19 16:00:00 33.5 8 Oeste 16 Sudoeste 0 -- -- 29
2018-09-19 15:00:00 32.1 9 Sudoeste 14 Sudoeste 0 -- -- 30
2018-09-19 14:00:00 30.6 8 Noroeste 13 Oeste 0 -- -- 29
2018-09-19 13:00:00 29 8 Oeste 12 Oeste 0 -- -- 36
2018-09-19 12:00:00 26.9 2 Este 13 Norte 0 -- -- 44
2018-09-19 11:00:00 23.2 6 Norte 11 Norte 0 -- -- 62
2018-09-19 10:00:00 19.7 0 Calma 11 Nordeste 0 -- -- 77
2018-09-19 09:00:00 17.4 4 Nordeste 9 Nordeste 0 -- -- 88
2018-09-19 08:00:00 17.1 5 Nordeste 7 Nordeste 0 -- -- 87
2018-09-19 07:00:00 17.9 2 Nordeste 5 Norte 0 -- -- 82
2018-09-19 06:00:00 18.4 3 Norte 8 Este 0 -- -- 80
2018-09-19 05:00:00 19.2 2 Nordeste 7 Nordeste 0 -- -- 76
2018-09-19 04:00:00 19.2 6 Nordeste 8 Sudeste 0 -- -- 73
2018-09-19 03:00:00 20.6 4 Norte 8 Norte 0 -- -- 66
2018-09-19 02:00:00 21.2 4 Nordeste 7 Este 0 -- -- 61
2018-09-19 01:00:00 22.9 7 Norte 17 Norte 0 -- -- 55
2018-09-19 00:00:00 24 12 Norte 19 Norte 0 -- -- 51
2018-09-18 23:00:00 25.2 10 Norte 17 Noroeste 0 -- -- 48
2018-09-18 22:00:00 26.5 11 Norte 18 Norte 0 -- -- 44
2018-09-18 21:00:00 28.4 12 Norte 23 Noroeste 0 -- -- 39
2018-09-18 20:00:00 30.7 16 Noroeste 26 Noroeste 0 -- -- 34
2018-09-18 19:00:00 32.3 15 Noroeste 26 Noroeste 0 -- -- 32
2018-09-18 18:00:00 32.9 9 Norte 22 Oeste 0 -- -- 32
2018-09-18 17:00:00 33.1 9 Oeste 18 Oeste 0 -- -- 32
2018-09-18 16:00:00 32.7 9 Oeste 15 Oeste 0 -- -- 33
2018-09-18 15:00:00 31.8 9 Oeste 13 Oeste 0 -- -- 35
2018-09-18 14:00:00 30.2 9 Oeste 12 Oeste 0 -- -- 39
2018-09-18 13:00:00 27.5 7 Oeste 14 Oeste 0 -- -- 45
2018-09-18 12:00:00 25.5 8 Sudoeste 12 Sudoeste 0 -- -- 46
2018-09-18 11:00:00 23.7 4 Sur 9 Sur 0 -- -- 54
2018-09-18 10:00:00 21.7 3 Este 7 Este 0 -- -- 68
2018-09-18 09:00:00 19.2 4 Sudeste 8 Sudeste 0 -- -- 81
2018-09-18 08:00:00 18.9 0 Calma 9 Sudeste 0 -- -- 83
2018-09-18 07:00:00 19 8 Sudeste 12 Sudeste 0 -- -- 84
2018-09-18 06:00:00 19.5 4 Sudeste 8 Sudeste 0 -- -- 80
2018-09-18 05:00:00 20.3 6 Sudeste 8 Sudeste 0 -- -- 72
2018-09-18 04:00:00 20.6 6 Sudeste 9 Sudeste 0 -- -- 65
2018-09-18 03:00:00 21.6 5 Sudeste 8 Sudeste 0 -- -- 62
2018-09-18 02:00:00 22.7 3 Sudoeste 7 Oeste 0 -- -- 55
2018-09-18 01:00:00 23.2 3 Noroeste 11 Noroeste 0 -- -- 51
2018-09-18 00:00:00 24.3 7 Oeste 19 Oeste 0 -- -- 48
2018-09-17 23:00:00 24.8 10 Oeste 17 Oeste 0 -- -- 52
2018-09-17 22:00:00 25 12 Sudoeste 27 Sudoeste 0 -- -- 64
2018-09-17 21:00:00 27.4 7 Sur 22 Sudoeste 0 -- -- 58
2018-09-17 20:00:00 28.1 15 Sudoeste 29 Oeste 0 -- -- 54
2018-09-17 19:00:00 31.2 7 Sur 19 Sudeste 0 -- -- 39
2018-09-17 18:00:00 30.9 13 Sudeste 42 Sudeste 0 -- -- 40
2018-09-17 17:00:00 30.9 25 Sudeste 44 Sudeste 0 -- -- 41
2018-09-17 16:00:00 32.8 12 Sudoeste 19 Oeste 0 -- -- 35
2018-09-17 15:00:00 31.6 13 Oeste 19 Oeste 0 -- -- 40
2018-09-17 14:00:00 30.1 12 Oeste 17 Sudoeste 0 -- -- 44
2018-09-17 13:00:00 28.4 13 Oeste 17 Oeste 0 -- -- 48
2018-09-17 12:00:00 26.6 8 Sudoeste 16 Sur 0 -- -- 55
2018-09-17 11:00:00 24.6 9 Sur 13 Sur 0 -- -- 63
2018-09-17 10:00:00 22.2 2 Nordeste 7 Noroeste 0 -- -- 75
2018-09-17 09:00:00 20.6 4 Sudoeste 9 Sur 0 -- -- 78
2018-09-17 08:00:00 20.1 7 Sur 14 Sur 0 -- -- 79
2018-09-17 07:00:00 20.1 11 Sur 15 Sur 0 -- -- 79
2018-09-17 06:00:00 20.6 9 Sur 15 Sur 0 -- -- 75
2018-09-17 05:00:00 20.8 5 Sudeste 12 Sur 0 -- -- 71
2018-09-17 04:00:00 21.7 8 Sur 14 Sur 0 -- -- 69
2018-09-17 03:00:00 22.3 8 Sur 14 Sur 0 -- -- 70
2018-09-17 02:00:00 23.3 12 Sur 18 Sur 0 -- -- 69
2018-09-17 01:00:00 24.5 8 Sur 13 Sur 0 -- -- 66
2018-09-17 00:00:00 25.3 8 Este 12 Este 0 -- -- 58
2018-09-16 23:00:00 25.6 4 Este 12 Sur 0 -- -- 59
2018-09-16 22:00:00 27.5 7 Este 12 Este 0 -- -- 48
2018-09-16 21:00:00 28.2 4 Este 10 Este 0 -- -- 48
2018-09-16 20:00:00 29.2 4 Norte 9 Noroeste 0 -- -- 51
2018-09-16 19:00:00 30 5 Noroeste 19 Noroeste 0 -- -- 49
2018-09-16 18:00:00 29.6 5 Oeste 30 Sur 0.6 -- -- 53
2018-09-16 17:00:00 32.7 10 Oeste 18 Oeste 0 -- -- 41
2018-09-16 16:00:00 32.5 11 Oeste 21 Oeste 0 -- -- 41
2018-09-16 15:00:00 31.5 8 Sudoeste 21 Sur 0 -- -- 44
2018-09-16 14:00:00 29.3 12 Sudoeste 19 Sudoeste 0 -- -- 49
2018-09-16 13:00:00 27.7 9 Oeste 14 Sudoeste 0 -- -- 53
2018-09-16 12:00:00 26.3 5 Oeste 10 Sur 0 -- -- 59
2018-09-16 11:00:00 24.8 3 Oeste 8 Sudoeste 0 -- -- 64
2018-09-16 10:00:00 22.8 3 Sur 7 Sudeste 0 -- -- 71
2018-09-16 09:00:00 20.6 4 Sudeste 6 Sudeste 0 -- -- 81
2018-09-16 08:00:00 20.2 6 Sur 12 Sur 0 -- -- 83
2018-09-16 07:00:00 20.5 10 Sur 15 Sur 0 -- -- 82
2018-09-16 06:00:00 20.9 8 Sur 13 Sudeste 0 -- -- 82
2018-09-16 05:00:00 21.4 8 Sur 14 Sur 0 -- -- 80
2018-09-16 04:00:00 21.3 9 Sudeste 11 Sudeste 0 -- -- 80
2018-09-16 03:00:00 22 0 Calma 9 Sur 0 -- -- 77
2018-09-16 02:00:00 22.7 6 Este 12 Sudeste 0 -- -- 72
2018-09-16 01:00:00 25 9 Sudeste 22 Nordeste 0 -- -- 62
2018-09-16 00:00:00 26 14 Nordeste 20 Nordeste 0 -- -- 47
2018-09-15 23:00:00 26.7 3 Oeste 10 Oeste 0 -- -- 61
2018-09-15 22:00:00 27.1 4 Norte 9 Este 0 -- -- 48
2018-09-15 21:00:00 28.7 8 Este 9 Este 0 -- -- 43
2018-09-15 20:00:00 31.6 3 Norte 11 Norte 0 -- -- 37
2018-09-15 19:00:00 32.2 7 Norte 16 Noroeste 0 -- -- 34
2018-09-15 18:00:00 31.2 9 Nordeste 30 Nordeste 0 -- -- 36
2018-09-15 17:00:00 30.8 17 Nordeste 26 Nordeste 0 -- -- 33
2018-09-15 16:00:00 31.2 7 Noroeste 19 Oeste 0 -- -- 38
2018-09-15 15:00:00 29.6 12 Oeste 19 Noroeste 0 -- -- 47
2018-09-15 14:00:00 28.8 8 Sur 19 Sudeste 0 -- -- 46
2018-09-15 13:00:00 26.8 4 Oeste 30 Este 0 -- -- 57
2018-09-15 12:00:00 24.8 4 Sudoeste 13 Este 0 -- -- 72
2018-09-15 11:00:00 23 4 Oeste 8 Oeste 0 -- -- 81
2018-09-15 10:00:00 21.6 3 Norte 5 Norte 0 -- -- 87
2018-09-15 09:00:00 20.3 0 Calma 5 Este 0 -- -- 93
2018-09-15 08:00:00 20.4 3 Sudeste 8 Oeste 0 -- -- 92
2018-09-15 07:00:00 20.3 7 Oeste 9 Oeste 0 -- -- 91
2018-09-15 06:00:00 19.7 0 Calma 12 Sur 0 -- -- 93
2018-09-15 05:00:00 19.8 5 Sudeste 17 Este 0 -- -- 93
2018-09-15 04:00:00 19.6 8 Este 12 Este 0 -- -- 93
2018-09-15 03:00:00 19.5 6 Sudeste 13 Este 0 -- -- 94
2018-09-15 02:00:00 19.4 11 Norte 23 Norte 0 -- -- 93
2018-09-15 01:00:00 19.6 13 Este 18 Este 0.2 -- -- 91
2018-09-15 00:00:00 19.5 9 Sudoeste 25 Este 4 -- -- 91
2018-09-14 23:00:00 19.4 18 Sudeste 47 Sudeste 1.2 -- -- 87
2018-09-14 22:00:00 20 23 Sudeste 54 Sudeste 1 -- -- 83
2018-09-14 21:00:00 22.7 26 Sur 49 Sudeste 0.4 -- -- 70
2018-09-14 20:00:00 30.1 15 Sudeste 32 Norte 0 -- -- 40
2018-09-14 19:00:00 34.6 18 Norte 28 Norte 0 -- -- 28
2018-09-14 18:00:00 32.1 16 Oeste 35 Oeste 0 -- -- 35
2018-09-14 17:00:00 34.9 10 Oeste 16 Oeste 0 -- -- 27
2018-09-14 16:00:00 35.5 5 Oeste 13 Oeste 0 -- -- 27
2018-09-14 15:00:00 33.4 9 Sudoeste 14 Sudoeste 0 -- -- 31
2018-09-14 14:00:00 30.4 10 Sudoeste 14 Sudoeste 0 -- -- 38
2018-09-14 13:00:00 27.8 10 Sudoeste 15 Sudoeste 0 -- -- 44
2018-09-14 12:00:00 25.3 12 Sudoeste 18 Sudoeste 0 -- -- 49
2018-09-14 11:00:00 24.3 12 Sudoeste 15 Sudoeste 0 -- -- 51
2018-09-14 10:00:00 21.9 6 Sur 10 Sur 0 -- -- 60
2018-09-14 09:00:00 19.4 5 Sudeste 10 Sudeste 0 -- -- 61
2018-09-14 08:00:00 19 7 Sudeste 10 Sudeste 0 -- -- 61
2018-09-14 07:00:00 19.4 7 Sudeste 9 Sudeste 0 -- -- 59
2018-09-14 06:00:00 20 8 Sudeste 10 Sudeste 0 -- -- 57
2018-09-14 05:00:00 20.5 8 Sudeste 11 Sudeste 0 -- -- 55
2018-09-14 04:00:00 21.4 9 Sudeste 12 Sudeste 0 -- -- 56
2018-09-14 03:00:00 22.9 7 Sudeste 10 Sur 0 -- -- 53
2018-09-14 02:00:00 24.1 4 Sudeste 8 Sur 0 -- -- 54
2018-09-14 01:00:00 25.7 6 Oeste 9 Oeste 0 -- -- 45
2018-09-14 00:00:00 26.6 0 Calma 11 Noroeste 0 -- -- 41
2018-09-13 23:00:00 27.7 4 Noroeste 21 Oeste 0 -- -- 49
2018-09-13 22:00:00 29.4 15 Oeste 25 Oeste 0 -- -- 40
2018-09-13 21:00:00 31 10 Sudoeste 17 Oeste 0 -- -- 42
2018-09-13 20:00:00 32.4 13 Sudoeste 18 Sudoeste 0 -- -- 39
2018-09-13 19:00:00 33.4 11 Sudoeste 19 Sudoeste 0 -- -- 35
2018-09-13 18:00:00 34.6 9 Sudoeste 14 Sudoeste 0 -- -- 28
2018-09-13 17:00:00 34.7 10 Sudoeste 17 Sudoeste 0 -- -- 30
2018-09-13 16:00:00 33.2 14 Sudoeste 18 Sudoeste 0 -- -- 36
2018-09-13 15:00:00 32.2 12 Sudoeste 17 Sudoeste 0 -- -- 39
2018-09-13 14:00:00 30.9 12 Oeste 18 Sudoeste 0 -- -- 43
2018-09-13 13:00:00 28.5 12 Oeste 16 Oeste 0 -- -- 50
2018-09-13 12:00:00 26.1 9 Oeste 13 Oeste 0 -- -- 64
2018-09-13 11:00:00 24.1 5 Sudoeste 11 Sudoeste 0 -- -- 75
2018-09-13 10:00:00 22.2 7 Sur 11 Sudoeste 0 -- -- 80
2018-09-13 09:00:00 20.2 3 Sudeste 8 Sudeste 0 -- -- 86
2018-09-13 08:00:00 19.7 5 Sudeste 7 Sudeste 0 -- -- 87
2018-09-13 07:00:00 20 5 Sur 8 Sudeste 0 -- -- 86
2018-09-13 06:00:00 20.3 6 Sudeste 8 Este 0 -- -- 85
2018-09-13 05:00:00 21.1 5 Sur 8 Sudeste 0 -- -- 82
2018-09-13 04:00:00 22.1 4 Sur 9 Sur 0 -- -- 80
2018-09-13 03:00:00 22.4 6 Sur 12 Sudoeste 0 -- -- 75
2018-09-13 02:00:00 23.1 8 Sudoeste 15 Sudoeste 0 -- -- 71
2018-09-13 01:00:00 23.9 12 Sudoeste 19 Sudoeste 0 -- -- 67
2018-09-13 00:00:00 25.3 17 Oeste 28 Sudoeste 0 -- -- 63
2018-09-12 23:00:00 28.3 13 Oeste 27 Noroeste 0 -- -- 54
2018-09-12 22:00:00 29.3 9 Nordeste 11 Nordeste 0 -- -- 36
2018-09-12 21:00:00 30 9 Norte 14 Norte 0 -- -- 37
2018-09-12 20:00:00 33.2 10 Norte 21 Norte 0 -- -- 31
2018-09-12 19:00:00 34.5 5 Norte 20 Norte 0 -- -- 30
2018-09-12 18:00:00 35.4 10 Oeste 18 Sudoeste 0 -- -- 29
2018-09-12 17:00:00 34.9 8 Oeste 19 Sur 0 -- -- 33
2018-09-12 16:00:00 34.2 14 Oeste 19 Oeste 0 -- -- 34
2018-09-12 15:00:00 33 11 Oeste 17 Oeste 0 -- -- 38
2018-09-12 14:00:00 30.9 9 Oeste 14 Oeste 0 -- -- 45
2018-09-12 13:00:00 29.2 7 Oeste 18 Oeste 0 -- -- 51
2018-09-12 12:00:00 28.1 5 Oeste 11 Oeste 0 -- -- 51
2018-09-12 11:00:00 26.1 5 Sur 9 Sur 0 -- -- 54
2018-09-12 10:00:00 23.6 4 Sur 8 Sudeste 0 -- -- 62
2018-09-12 09:00:00 21 5 Sudeste 10 Sur 0 -- -- 71
2018-09-12 08:00:00 20.2 8 Sur 10 Sudeste 0 -- -- 74
2018-09-12 07:00:00 20.9 5 Sudeste 11 Sur 0 -- -- 73
2018-09-12 06:00:00 21.6 8 Sur 12 Sur 0 -- -- 70
2018-09-12 05:00:00 22.2 10 Sur 14 Sur 0 -- -- 66
2018-09-12 04:00:00 22.8 8 Sur 18 Sur 0 -- -- 63
2018-09-12 03:00:00 23.6 11 Sur 26 Sur 0 -- -- 62
2018-09-12 02:00:00 24.7 19 Sur 28 Sur 0 -- -- 59
2018-09-12 01:00:00 25.8 9 Sudeste 14 Este 0 -- -- 46
2018-09-12 00:00:00 26.6 10 Este 15 Este 0 -- -- 42
2018-09-11 23:00:00 27.5 8 Este 19 Nordeste 0 -- -- 38
2018-09-11 22:00:00 29.4 15 Nordeste 20 Este 0 -- -- 35
2018-09-11 21:00:00 30.3 10 Nordeste 20 Nordeste 0 -- -- 36
2018-09-11 20:00:00 31.8 15 Nordeste 24 Nordeste 0 -- -- 34
2018-09-11 19:00:00 32.7 17 Nordeste 26 Nordeste 0 -- -- 32
2018-09-11 18:00:00 33.1 10 Nordeste 28 Este 0 -- -- 33
2018-09-11 17:00:00 32.9 10 Este 26 Este 0 -- -- 34
2018-09-11 16:00:00 32.2 12 Nordeste 23 Este 0 -- -- 35
2018-09-11 15:00:00 31.3 9 Nordeste 25 Este 0 -- -- 37
2018-09-11 14:00:00 31.5 14 Norte 32 Noroeste 0 -- -- 37
2018-09-11 13:00:00 30.8 10 Nordeste 23 Este 0 -- -- 39
2018-09-11 12:00:00 29.1 9 Nordeste 22 Nordeste 0 -- -- 43
2018-09-11 11:00:00 26.3 7 Norte 12 Nordeste 0 -- -- 48
2018-09-11 10:00:00 23.1 6 Nordeste 11 Este 0 -- -- 53
2018-09-11 09:00:00 20.6 7 Este 22 Nordeste 0 -- -- 58
2018-09-11 08:00:00 19.4 7 Nordeste 19 Nordeste 0 -- -- 59
2018-09-11 07:00:00 18.6 8 Nordeste 11 Sur 0 -- -- 61
2018-09-11 06:00:00 19.8 5 Nordeste 10 Norte 0 -- -- 57
2018-09-11 05:00:00 20.6 3 Norte 11 Nordeste 0 -- -- 54
2018-09-11 04:00:00 21.7 4 Nordeste 10 Nordeste 0 -- -- 50
2018-09-11 03:00:00 21.7 2 Norte 5 Oeste 0 -- -- 49
2018-09-11 02:00:00 22.9 4 Este 9 Este 0 -- -- 44
2018-09-11 01:00:00 23.1 10 Este 16 Sudeste 0 -- -- 42
2018-09-11 00:00:00 24 5 Sudeste 12 Este 0 -- -- 41
2018-09-10 23:00:00 27 12 Este 15 Este 0 -- -- 32
2018-09-10 22:00:00 28.3 10 Este 11 Este 0 -- -- 29
2018-09-10 21:00:00 29.3 8 Este 21 Este 0 -- -- 28
2018-09-10 20:00:00 31.6 13 Este 31 Norte 0 -- -- 26
2018-09-10 19:00:00 32.2 15 Este 31 Este 0 -- -- 25
2018-09-10 18:00:00 32.4 19 Nordeste 39 Este 0 -- -- 25
2018-09-10 17:00:00 32.3 17 Nordeste 37 Este 0 -- -- 27
2018-09-10 16:00:00 32.1 21 Nordeste 36 Nordeste 0 -- -- 28
2018-09-10 15:00:00 32 18 Nordeste 35 Nordeste 0 -- -- 29
2018-09-10 14:00:00 30.8 15 Nordeste 33 Nordeste 0 -- -- 33
2018-09-10 13:00:00 30.1 14 Nordeste 25 Nordeste 0 -- -- 34
2018-09-10 12:00:00 27.3 10 Nordeste 18 Norte 0 -- -- 44
2018-09-10 11:00:00 24.2 9 Norte 15 Nordeste 0 -- -- 53
2018-09-10 10:00:00 21 6 Nordeste 14 Nordeste 0 -- -- 64
2018-09-10 09:00:00 18 6 Nordeste 9 Nordeste 0 -- -- 74
2018-09-10 08:00:00 16.7 4 Norte 7 Sudeste 0 -- -- 76
2018-09-10 07:00:00 17.4 4 Este 10 Este 0 -- -- 73
2018-09-10 06:00:00 18.2 3 Sudeste 6 Este 0 -- -- 71
2018-09-10 05:00:00 18.8 0 Calma 8 Sudeste 0 -- -- 70
2018-09-10 04:00:00 19.5 2 Sudeste 7 Este 0 -- -- 67
2018-09-10 03:00:00 20.7 0 Calma 10 Nordeste 0 -- -- 65
2018-09-10 02:00:00 21.5 5 Nordeste 8 Norte 0 -- -- 60
2018-09-10 01:00:00 22.9 5 Nordeste 6 Nordeste 0 -- -- 54
2018-09-10 00:00:00 23.6 5 Norte 16 Sudoeste 0 -- -- 51
2018-09-09 23:00:00 25.6 8 Sudeste 16 Este 0 -- -- 49
2018-09-09 22:00:00 26.8 11 Este 24 Norte 0 -- -- 43
2018-09-09 21:00:00 28.2 6 Este 17 Nordeste 0 -- -- 38
2018-09-09 20:00:00 30.2 5 Este 19 Nordeste 0 -- -- 33
2018-09-09 19:00:00 30.4 10 Nordeste 20 Nordeste 0 -- -- 33
2018-09-09 18:00:00 30.4 10 Este 27 Este 0 -- -- 36
2018-09-09 17:00:00 30.5 10 Nordeste 26 Este 0 -- -- 34
2018-09-09 16:00:00 30 9 Oeste 18 Sur 0 -- -- 38
2018-09-09 15:00:00 26.9 13 Sudeste 23 Nordeste 0 -- -- 48
2018-09-09 14:00:00 27.8 11 Norte 22 Norte 0 -- -- 47
2018-09-09 13:00:00 24.8 10 Norte 16 Oeste 0 -- -- 57
2018-09-09 12:00:00 23.2 8 Noroeste 14 Nordeste 0 -- -- 62
2018-09-09 11:00:00 22 7 Norte 13 Nordeste 0 -- -- 65
2018-09-09 10:00:00 19.5 6 Norte 14 Nordeste 0 -- -- 77
2018-09-09 09:00:00 16.2 5 Este 7 Este 0 -- -- 87
2018-09-09 08:00:00 15.5 5 Nordeste 8 Sudeste 0 -- -- 89
2018-09-09 07:00:00 15.9 8 Este 11 Este 0 -- -- 84
2018-09-09 06:00:00 16.5 0 Calma 8 Sudeste 0 -- -- 84
2018-09-09 05:00:00 17.3 2 Nordeste 5 Norte 0 -- -- 84
2018-09-09 04:00:00 17.9 0 Calma 5 Noroeste 0 -- -- 80
2018-09-09 03:00:00 18.4 3 Norte 9 Noroeste 0 -- -- 77
2018-09-09 02:00:00 19.2 5 Noroeste 13 Noroeste 0 -- -- 74
2018-09-09 01:00:00 20 10 Noroeste 18 Oeste 0 -- -- 72
2018-09-09 00:00:00 20.8 11 Oeste 20 Oeste 0 -- -- 66
2018-09-08 23:00:00 22.1 9 Oeste 17 Oeste 0 -- -- 64
2018-09-08 22:00:00 23.6 11 Noroeste 21 Noroeste 0 -- -- 52
2018-09-08 21:00:00 25.2 6 Noroeste 24 Sudoeste 0 -- -- 42
2018-09-08 20:00:00 26.7 15 Oeste 28 Oeste 0 -- -- 38
2018-09-08 19:00:00 27.2 18 Oeste 30 Oeste 0 -- -- 36
2018-09-08 18:00:00 27.1 21 Oeste 32 Oeste 0 -- -- 36
2018-09-08 17:00:00 26.9 18 Oeste 31 Oeste 0 -- -- 38
2018-09-08 16:00:00 26.5 17 Oeste 32 Sudoeste 0 -- -- 40
2018-09-08 15:00:00 25.6 20 Sudoeste 32 Sudoeste 0 -- -- 43
2018-09-08 14:00:00 24.4 21 Oeste 32 Oeste 0 -- -- 48
2018-09-08 13:00:00 22.5 21 Oeste 26 Oeste 0 -- -- 55
2018-09-08 12:00:00 21.2 15 Oeste 21 Sudoeste 0 -- -- 68
2018-09-08 11:00:00 19.6 6 Sudoeste 12 Sudoeste 0 -- -- 75
2018-09-08 10:00:00 17.9 0 Calma 8 Norte 0 -- -- 85
2018-09-08 09:00:00 16.2 4 Nordeste 10 Noroeste 0 -- -- 91
2018-09-08 08:00:00 17.1 5 Oeste 10 Sur 0 -- -- 89
2018-09-08 07:00:00 16.9 7 Sur 14 Sur 0 -- -- 90
2018-09-08 06:00:00 17.3 10 Sur 16 Sudoeste 0 -- -- 88
2018-09-08 05:00:00 18.1 14 Sudoeste 19 Sur 0 -- -- 84
2018-09-08 04:00:00 18.2 10 Sur 18 Sudoeste 0 -- -- 83
2018-09-08 03:00:00 18.5 13 Sur 18 Sur 0 -- -- 79
2018-09-08 02:00:00 19 11 Oeste 16 Oeste 0 -- -- 72
2018-09-08 01:00:00 19.5 11 Oeste 19 Oeste 0 -- -- 71
2018-09-08 00:00:00 20.5 9 Oeste 29 Oeste 0 -- -- 70
2018-09-07 23:00:00 23.5 18 Sudoeste 27 Sudoeste 0 -- -- 55
2018-09-07 22:00:00 24.5 14 Sudoeste 22 Sudoeste 0 -- -- 42
2018-09-07 21:00:00 26 16 Sur 30 Sur 0 -- -- 37
2018-09-07 20:00:00 28.1 26 Sur 38 Sur 0 -- -- 31
2018-09-07 19:00:00 29.5 18 Sudoeste 31 Oeste 0 -- -- 33
2018-09-07 18:00:00 29.8 15 Oeste 30 Oeste 0 -- -- 38
2018-09-07 17:00:00 28.8 17 Oeste 24 Sudoeste 0 -- -- 45
2018-09-07 16:00:00 28.3 11 Oeste 21 Oeste 0 -- -- 48
2018-09-07 15:00:00 26.1 14 Oeste 21 Oeste 0 -- -- 54
2018-09-07 14:00:00 23.6 15 Oeste 21 Sudoeste 0 -- -- 58
2018-09-07 13:00:00 21.1 12 Sudoeste 23 Sudoeste 0 -- -- 72
2018-09-07 12:00:00 19.8 14 Oeste 22 Oeste 0 -- -- 81
2018-09-07 11:00:00 18.6 9 Oeste 14 Oeste 0 -- -- 87
2018-09-07 10:00:00 16.7 2 Sudeste 6 Este 0 -- -- 95
2018-09-07 09:00:00 15.8 0 Calma 12 Sur 0 -- -- 97
2018-09-07 08:00:00 14.7 7 Sudeste 9 Sudeste 0 -- -- 92
2018-09-07 07:00:00 15.4 6 Sudeste 8 Sudeste 0 -- -- 90
2018-09-07 06:00:00 15.9 5 Sudeste 8 Sudeste 0 -- -- 89
2018-09-07 05:00:00 16.5 5 Sudeste 7 Sudeste 0 -- -- 86
2018-09-07 04:00:00 17.3 0 Calma 2 Norte 0 -- -- 85
2018-09-07 03:00:00 17.8 0 Calma 8 Oeste 0 -- -- 82
2018-09-07 02:00:00 18.8 6 Oeste 12 Oeste 0 -- -- 78
2018-09-07 01:00:00 19.6 10 Oeste 17 Oeste 0 -- -- 74
2018-09-07 00:00:00 21.5 9 Oeste 17 Norte 0 -- -- 64
2018-09-06 23:00:00 22.3 12 Norte 21 Noroeste 0 -- -- 59
2018-09-06 22:00:00 24 14 Noroeste 22 Oeste 0 -- -- 54
2018-09-06 21:00:00 26.2 12 Oeste 20 Sudoeste 0 -- -- 43
2018-09-06 20:00:00 27.9 12 Sudoeste 18 Sudoeste 0 -- -- 37
2018-09-06 19:00:00 28.6 13 Sudoeste 20 Sudoeste 0 -- -- 36
2018-09-06 18:00:00 28.6 10 Sudoeste 17 Sur 0 -- -- 36
2018-09-06 17:00:00 28.2 10 Sudoeste 18 Sudoeste 0 -- -- 33
2018-09-06 16:00:00 27.6 8 Oeste 18 Sudoeste 0 -- -- 39
2018-09-06 15:00:00 25.8 6 Sudoeste 15 Sudoeste 0 -- -- 42
2018-09-06 14:00:00 24.3 8 Oeste 15 Sur 0 -- -- 49
2018-09-06 13:00:00 22.1 6 Sudoeste 14 Sudoeste 0 -- -- 55
2018-09-06 12:00:00 20.2 3 Noroeste 10 Oeste 0 -- -- 64
2018-09-06 11:00:00 18.5 3 Norte 14 Oeste 0 -- -- 72
2018-09-06 10:00:00 17.6 5 Sudoeste 13 Oeste 0 -- -- 76
2018-09-06 09:00:00 17.2 8 Oeste 15 Noroeste 0 -- -- 79
2018-09-06 08:00:00 17.1 7 Noroeste 14 Noroeste 0 -- -- 81
2018-09-06 07:00:00 17.2 8 Oeste 16 Oeste 0 -- -- 81
2018-09-06 06:00:00 17.3 9 Oeste 18 Oeste 0 -- -- 82
2018-09-06 05:00:00 17.1 9 Noroeste 18 Noroeste 0 -- -- 84
2018-09-06 04:00:00 16.6 8 Noroeste 17 Noroeste 0 -- -- 89
2018-09-06 03:00:00 17.3 6 Noroeste 16 Oeste 0 -- -- 85
2018-09-06 02:00:00 18.4 10 Noroeste 21 Oeste 0 -- -- 81
2018-09-06 01:00:00 19.5 8 Oeste 13 Oeste 0 -- -- 78
2018-09-06 00:00:00 20.3 6 Noroeste 19 Oeste 0 -- -- 75
2018-09-05 23:00:00 21.5 14 Noroeste 26 Noroeste 0 -- -- 72
2018-09-05 22:00:00 22.8 15 Noroeste 32 Noroeste 0 -- -- 67
2018-09-05 21:00:00 24.4 17 Noroeste 25 Noroeste 0 -- -- 57
2018-09-05 20:00:00 25.6 14 Noroeste 21 Noroeste 0 -- -- 48
2018-09-05 19:00:00 26 13 Noroeste 22 Noroeste 0 -- -- 48
2018-09-05 18:00:00 26.4 14 Noroeste 25 Oeste 0 -- -- 46
2018-09-05 17:00:00 26.3 15 Sudoeste 32 Sudoeste 0 -- -- 44
2018-09-05 16:00:00 26.6 16 Sudoeste 25 Sur 0 -- -- 46
2018-09-05 15:00:00 26.1 17 Sudoeste 27 Sudoeste 0 -- -- 48
2018-09-05 14:00:00 24.4 12 Sudoeste 26 Sudoeste 0 -- -- 55
2018-09-05 13:00:00 24 15 Sudoeste 24 Sudoeste 0 -- -- 58
2018-09-05 12:00:00 22.6 12 Oeste 23 Sudoeste 0 -- -- 67
2018-09-05 11:00:00 21.1 13 Sudoeste 18 Sudoeste 0 -- -- 75
2018-09-05 10:00:00 20.5 12 Oeste 18 Oeste 0 -- -- 77
2018-09-05 09:00:00 19.9 9 Oeste 15 Oeste 0 -- -- 80
2018-09-05 08:00:00 19.9 9 Oeste 19 Oeste 0 -- -- 80
2018-09-05 07:00:00 20 9 Oeste 18 Oeste 0 -- -- 81
2018-09-05 06:00:00 20.2 10 Oeste 17 Oeste 0 -- -- 80
2018-09-05 05:00:00 20 6 Oeste 16 Sudoeste 0 -- -- 81
2018-09-05 04:00:00 20.2 12 Oeste 18 Oeste 0 -- -- 80
2018-09-05 03:00:00 20.7 8 Oeste 16 Oeste 0 -- -- 77
2018-09-05 02:00:00 20.9 13 Oeste 20 Oeste 0 -- -- 75
2018-09-05 01:00:00 21.4 13 Oeste 21 Oeste 0 -- -- 75
2018-09-05 00:00:00 21.6 10 Oeste 20 Oeste 0 -- -- 74
2018-09-04 23:00:00 22.1 11 Oeste 23 Oeste 0 -- -- 71
2018-09-04 22:00:00 23 16 Oeste 40 Oeste 0 -- -- 68
2018-09-04 21:00:00 25.3 18 Sudoeste 29 Oeste 0 -- -- 54
2018-09-04 20:00:00 26 13 Sudoeste 22 Sudoeste 0 -- -- 48
2018-09-04 19:00:00 26.4 10 Sudoeste 22 Sudoeste 0 -- -- 45
2018-09-04 18:00:00 27.4 9 Oeste 22 Sur 0 -- -- 44
2018-09-04 17:00:00 26.1 11 Sudoeste 25 Sudoeste 0 -- -- 49
2018-09-04 16:00:00 24.4 12 Oeste 23 Sudoeste 0 -- -- 55
2018-09-04 15:00:00 23.4 12 Sudoeste 21 Sudoeste 0 -- -- 57
2018-09-04 14:00:00 23 11 Sudoeste 22 Sudoeste 0 -- -- 59
2018-09-04 13:00:00 22.5 12 Oeste 19 Oeste 0 -- -- 61
2018-09-04 12:00:00 22.1 6 Oeste 15 Sudoeste 0 -- -- 65
2018-09-04 11:00:00 21.2 7 Sudoeste 12 Sudoeste 0 -- -- 71
2018-09-04 10:00:00 20.2 5 Sur 10 Sur 0 -- -- 79
2018-09-04 09:00:00 19.2 3 Sur 7 Sur 0 -- -- 82
2018-09-04 08:00:00 18.7 3 Sur 9 Sur 0 -- -- 83
2018-09-04 07:00:00 17.8 5 Sudeste 10 Sur 0 -- -- 81
2018-09-04 06:00:00 17.8 9 Sudeste 12 Sudeste 0 -- -- 81
2018-09-04 05:00:00 18.4 6 Sur 9 Oeste 0 -- -- 81
2018-09-04 04:00:00 18.7 6 Oeste 13 Oeste 0 -- -- 79
2018-09-04 03:00:00 19 8 Oeste 14 Oeste 0 -- -- 77
2018-09-04 02:00:00 19.4 9 Oeste 19 Oeste 0 -- -- 72
2018-09-04 01:00:00 20 12 Oeste 18 Oeste 0 -- -- 69
2018-09-04 00:00:00 20.9 12 Oeste 26 Oeste 0 -- -- 66
2018-09-03 23:00:00 22 18 Oeste 30 Oeste 0 -- -- 63
2018-09-03 22:00:00 24 22 Oeste 36 Oeste 0 -- -- 57
2018-09-03 21:00:00 27.2 9 Oeste 21 Oeste 0 -- -- 48
2018-09-03 20:00:00 29 9 Oeste 22 Sudoeste 0 -- -- 41
2018-09-03 19:00:00 28.9 15 Sudoeste 25 Sudoeste 0 -- -- 43
2018-09-03 18:00:00 28.8 15 Sudoeste 24 Sudoeste 0 -- -- 45
2018-09-03 17:00:00 28 17 Sudoeste 26 Sudoeste 0 -- -- 48
2018-09-03 16:00:00 27.1 18 Sudoeste 26 Sudoeste 0 -- -- 51
2018-09-03 15:00:00 26.2 17 Sudoeste 27 Oeste 0 -- -- 56
2018-09-03 14:00:00 25.2 16 Oeste 23 Oeste 0 -- -- 59
2018-09-03 13:00:00 23.3 14 Sudoeste 20 Sudoeste 0 -- -- 69
2018-09-03 12:00:00 22.2 12 Sudoeste 18 Oeste 0 -- -- 75
2018-09-03 11:00:00 21.3 9 Oeste 18 Oeste 0 -- -- 78
2018-09-03 10:00:00 20.8 9 Oeste 17 Oeste 0 -- -- 78
2018-09-03 09:00:00 20.6 6 Oeste 13 Noroeste 0 -- -- 81
2018-09-03 08:00:00 20.4 8 Oeste 18 Oeste 0 -- -- 83
2018-09-03 07:00:00 20.6 12 Oeste 18 Oeste 0 -- -- 85
2018-09-03 06:00:00 21.6 11 Sudoeste 20 Sudoeste 0 -- -- 85
2018-09-03 05:00:00 21.5 6 Oeste 14 Oeste 0 -- -- 87
2018-09-03 04:00:00 21.1 9 Sudoeste 13 Sudoeste 0 -- -- 85
2018-09-03 03:00:00 21.4 5 Oeste 16 Oeste 0 -- -- 84
2018-09-03 02:00:00 22.1 9 Oeste 17 Oeste 0 -- -- 83
2018-09-03 01:00:00 22.8 9 Oeste 20 Oeste 0 -- -- 81
2018-09-03 00:00:00 23.8 12 Oeste 21 Oeste 0 -- -- 78
2018-09-02 23:00:00 25.2 9 Oeste 25 Oeste 0 -- -- 72
2018-09-02 22:00:00 28.1 18 Oeste 27 Sudoeste 0 -- -- 62
2018-09-02 21:00:00 30.8 19 Sudoeste 32 Sudoeste 0 -- -- 49
2018-09-02 20:00:00 32.3 23 Sudoeste 35 Sudoeste 0 -- -- 46
2018-09-02 19:00:00 33.9 22 Sudoeste 34 Sudoeste 0 -- -- 43
2018-09-02 18:00:00 35.3 19 Sudoeste 34 Oeste 0 -- -- 37
2018-09-02 17:00:00 35.5 20 Oeste 29 Oeste 0 -- -- 34
2018-09-02 16:00:00 35.8 15 Oeste 26 Sudoeste 0 -- -- 33
2018-09-02 15:00:00 34.8 14 Oeste 21 Oeste 0 -- -- 36
2018-09-02 14:00:00 34 11 Sudoeste 19 Sudoeste 0 -- -- 37
2018-09-02 13:00:00 32.8 7 Sudeste 18 Sur 0 -- -- 40
2018-09-02 12:00:00 30.1 5 Sudoeste 12 Sudoeste 0 -- -- 48
2018-09-02 11:00:00 27.9 5 Sudoeste 9 Sur 0 -- -- 54
2018-09-02 10:00:00 25.3 3 Sur 7 Sur 0 -- -- 65
2018-09-02 09:00:00 22.4 5 Sudeste 7 Sudeste 0 -- -- 75
2018-09-02 08:00:00 21.6 6 Sudeste 11 Sur 0 -- -- 78
2018-09-02 07:00:00 22 8 Sudeste 10 Sudeste 0 -- -- 77
2018-09-02 06:00:00 23.2 7 Sur 8 Sur 0 -- -- 76
2018-09-02 05:00:00 23.8 7 Sur 9 Sur 0 -- -- 72
2018-09-02 04:00:00 24.3 5 Sudeste 11 Sur 0 -- -- 69
2018-09-02 03:00:00 25.2 7 Sur 11 Sur 0 -- -- 67
2018-09-02 02:00:00 26.1 9 Sur 13 Sur 0 -- -- 60
2018-09-02 01:00:00 26.8 7 Sudoeste 13 Sudoeste 0 -- -- 57
2018-09-02 00:00:00 28.1 6 Oeste 13 Sudoeste 0 -- -- 52
2018-09-01 23:00:00 29.4 10 Sudoeste 19 Sudoeste 0 -- -- 56
2018-09-01 22:00:00 31.3 15 Sudoeste 29 Sudoeste 0 -- -- 44
2018-09-01 21:00:00 32.9 21 Sudoeste 33 Sudoeste 0 -- -- 39
2018-09-01 20:00:00 34.8 22 Sudoeste 36 Sudoeste 0 -- -- 34
2018-09-01 19:00:00 37.3 18 Sudoeste 25 Sudoeste 0 -- -- 26
2018-09-01 18:00:00 38.4 13 Sudoeste 26 Oeste 0 -- -- 24
2018-09-01 17:00:00 38.5 14 Oeste 24 Sudoeste 0 -- -- 24
2018-09-01 16:00:00 37.2 18 Sudoeste 26 Sudoeste 0 -- -- 26
2018-09-01 15:00:00 36.2 17 Sudoeste 23 Sudoeste 0 -- -- 29
2018-09-01 14:00:00 35 11 Oeste 16 Oeste 0 -- -- 31
2018-09-01 13:00:00 33.8 10 Oeste 14 Oeste 0 -- -- 33
2018-09-01 12:00:00 32.3 9 Oeste 14 Oeste 0 -- -- 37
2018-09-01 11:00:00 29.7 5 Sur 8 Sudoeste 0 -- -- 40
2018-09-01 10:00:00 26.3 0 Calma 5 Este 0 -- -- 48
2018-09-01 09:00:00 22.1 3 Sudeste 8 Sudeste 0 -- -- 59
2018-09-01 08:00:00 22.3 4 Este 7 Este 0 -- -- 61
2018-09-01 07:00:00 23.1 6 Sudeste 6 Este 0 -- -- 58
2018-09-01 06:00:00 24 6 Sur 9 Sur 0 -- -- 58
2018-09-01 05:00:00 24.7 5 Sur 14 Sur 0 -- -- 56
2018-09-01 04:00:00 25.5 9 Sur 14 Sur 0 -- -- 50
2018-09-01 03:00:00 26.7 12 Sur 18 Sur 0 -- -- 46
2018-09-01 02:00:00 27.9 12 Sur 19 Sur 0 -- -- 42
2018-09-01 01:00:00 28 11 Sudeste 19 Sudeste 0 -- -- 37
2018-09-01 00:00:00 30.1 6 Este 20 Este 0 -- -- 30
2018-08-31 23:00:00 30.9 7 Nordeste 14 Nordeste 0 -- -- 28
2018-08-31 22:00:00 31.4 11 Nordeste 16 Nordeste 0 -- -- 28
2018-08-31 21:00:00 34.4 11 Nordeste 24 Norte 0 -- -- 26
2018-08-31 20:00:00 36.3 17 Norte 26 Norte 0 -- -- 23
2018-08-31 19:00:00 37.4 14 Norte 27 Norte 0 -- -- 23
2018-08-31 18:00:00 37.8 15 Norte 27 Noroeste 0 -- -- 22
2018-08-31 17:00:00 38 14 Noroeste 35 Norte 0 -- -- 22
2018-08-31 16:00:00 37.4 17 Noroeste 27 Norte 0 -- -- 23
2018-08-31 15:00:00 36.7 13 Oeste 19 Oeste 0 -- -- 25
2018-08-31 14:00:00 34.9 12 Oeste 18 Oeste 0 -- -- 30
2018-08-31 13:00:00 32.1 13 Oeste 15 Oeste 0 -- -- 35
2018-08-31 12:00:00 28.9 9 Oeste 13 Oeste 0 -- -- 44
2018-08-31 11:00:00 26.6 6 Oeste 9 Oeste 0 -- -- 49
2018-08-31 10:00:00 23.7 2 Norte 5 Noroeste 0 -- -- 53
2018-08-31 09:00:00 20.1 0 Calma 8 Sudeste 0 -- -- 63
2018-08-31 08:00:00 19.3 7 Sudeste 9 Sudeste 0 -- -- 65
2018-08-31 07:00:00 20.1 4 Este 9 Sudeste 0 -- -- 62
2018-08-31 06:00:00 20.1 9 Sudeste 10 Sudeste 0 -- -- 63
2018-08-31 05:00:00 20.9 0 Calma 11 Sudeste 0 -- -- 60
2018-08-31 04:00:00 21.7 7 Sudeste 9 Sudeste 0 -- -- 58
2018-08-31 03:00:00 22.8 0 Calma 11 Norte 0 -- -- 55
2018-08-31 02:00:00 23.7 5 Nordeste 9 Norte 0 -- -- 53
2018-08-31 01:00:00 25 8 Norte 16 Norte 0 -- -- 49
2018-08-31 00:00:00 27 4 Oeste 17 Norte 0 -- -- 44
2018-08-30 23:00:00 28.5 14 Norte 30 Norte 0 -- -- 42
2018-08-30 22:00:00 30 7 Noroeste 10 Noroeste 0 -- -- 30
2018-08-30 21:00:00 31.4 5 Noroeste 13 Sudoeste 0 -- -- 35
2018-08-30 20:00:00 33.7 9 Sudoeste 15 Oeste 0 -- -- 30
2018-08-30 19:00:00 34.8 9 Oeste 15 Sudoeste 0 -- -- 23
2018-08-30 18:00:00 35.2 12 Sudoeste 17 Sudoeste 0 -- -- 24
2018-08-30 17:00:00 35.3 10 Sudoeste 14 Noroeste 0 -- -- 24
2018-08-30 16:00:00 35 8 Oeste 17 Oeste 0 -- -- 26
2018-08-30 15:00:00 33.7 7 Sudoeste 15 Oeste 0 -- -- 28
2018-08-30 14:00:00 31.7 8 Oeste 18 Oeste 0 -- -- 35
2018-08-30 13:00:00 28.2 11 Oeste 14 Oeste 0 -- -- 48
2018-08-30 12:00:00 25.7 9 Oeste 14 Oeste 0 -- -- 55
2018-08-30 11:00:00 22.4 6 Oeste 10 Oeste 0 -- -- 65
2018-08-30 10:00:00 20.3 0 Calma 5 Este 0 -- -- 69
2018-08-30 09:00:00 17.2 0 Calma 3 Este 0 -- -- 80
2018-08-30 08:00:00 15.7 2 Norte 5 Norte 0 -- -- 86
2018-08-30 07:00:00 16.2 3 Norte 5 Norte 0 -- -- 84
2018-08-30 06:00:00 16.7 2 Nordeste 6 Norte 0 -- -- 81
2018-08-30 05:00:00 17.4 2 Nordeste 6 Norte 0 -- -- 78
2018-08-30 04:00:00 18 3 Norte 7 Norte 0 -- -- 77
2018-08-30 03:00:00 18.5 6 Norte 10 Noroeste 0 -- -- 74
2018-08-30 02:00:00 19.4 5 Norte 12 Norte 0 -- -- 70
2018-08-30 01:00:00 20.5 9 Norte 20 Norte 0 -- -- 67
2018-08-30 00:00:00 21.8 10 Norte 21 Norte 0 -- -- 61
2018-08-29 23:00:00 23.7 14 Norte 26 Noroeste 0 -- -- 54
2018-08-29 22:00:00 26.3 14 Norte 23 Norte 0 -- -- 46
2018-08-29 21:00:00 28.1 15 Norte 26 Norte 0 -- -- 39
2018-08-29 20:00:00 30.5 15 Noroeste 28 Norte 0 -- -- 35
2018-08-29 19:00:00 31.4 15 Norte 23 Norte 0 -- -- 34
2018-08-29 18:00:00 32 11 Norte 19 Sudoeste 0 -- -- 34
2018-08-29 17:00:00 31.6 10 Sudoeste 18 Oeste 0 -- -- 37
2018-08-29 16:00:00 29.6 13 Sudoeste 21 Oeste 0 -- -- 43
2018-08-29 15:00:00 28.1 15 Oeste 24 Oeste 0 -- -- 46
2018-08-29 14:00:00 26.1 9 Sudoeste 14 Nordeste 0 -- -- 53
2018-08-29 13:00:00 24.1 4 Oeste 15 Nordeste 0 -- -- 59
2018-08-29 12:00:00 21.2 8 Nordeste 17 Norte 0 -- -- 68
2018-08-29 11:00:00 19.3 5 Noroeste 13 Norte 0 -- -- 75
2018-08-29 10:00:00 18.8 6 Norte 14 Noroeste 0 -- -- 77
2018-08-29 09:00:00 18.6 5 Norte 13 Noroeste 0 -- -- 78
2018-08-29 08:00:00 18.8 5 Norte 10 Norte 0 -- -- 79
2018-08-29 07:00:00 18.7 5 Noroeste 15 Noroeste 0 -- -- 80
2018-08-29 06:00:00 19 4 Norte 14 Noroeste 0 -- -- 80
2018-08-29 05:00:00 18.8 7 Norte 12 Norte 0 -- -- 80
2018-08-29 04:00:00 18.1 6 Norte 14 Noroeste 0 -- -- 85
2018-08-29 03:00:00 18 7 Norte 16 Norte 0 -- -- 84
2018-08-29 02:00:00 18.7 9 Noroeste 19 Noroeste 0 -- -- 81
2018-08-29 01:00:00 19.6 13 Noroeste 18 Noroeste 0 -- -- 77
2018-08-29 00:00:00 20.4 9 Noroeste 21 Norte 0 -- -- 75
2018-08-28 23:00:00 21.5 12 Noroeste 29 Noroeste 0 -- -- 70
2018-08-28 22:00:00 23.2 18 Noroeste 28 Noroeste 0 -- -- 63
2018-08-28 21:00:00 25.5 18 Noroeste 30 Noroeste 0 -- -- 52
2018-08-28 20:00:00 28 22 Noroeste 31 Noroeste 0 -- -- 45
2018-08-28 19:00:00 30.6 17 Oeste 27 Oeste 0 -- -- 39
2018-08-28 18:00:00 31.1 15 Noroeste 27 Noroeste 0 -- -- 39
2018-08-28 17:00:00 31.4 18 Sudoeste 24 Sudoeste 0 -- -- 34
2018-08-28 16:00:00 30.2 18 Sudoeste 22 Sudoeste 0 -- -- 39
2018-08-28 15:00:00 28.4 18 Sudoeste 25 Sudoeste 0 -- -- 50
2018-08-28 14:00:00 26.2 18 Sudoeste 24 Sudoeste 0 -- -- 61
2018-08-28 13:00:00 24.1 12 Sudoeste 17 Sudoeste 0 -- -- 68
2018-08-28 12:00:00 22 9 Oeste 19 Sudoeste 0 -- -- 74
2018-08-28 11:00:00 20.1 13 Sudoeste 21 Sudoeste 0 -- -- 83
2018-08-28 10:00:00 20.1 14 Oeste 23 Sudoeste 0 -- -- 79
2018-08-28 09:00:00 21.3 19 Sudoeste 26 Sudoeste 0 -- -- 82
2018-08-28 08:00:00 22 15 Sur 21 Sur 0 -- -- 84
2018-08-28 07:00:00 22.5 12 Sur 18 Sur 0 -- -- 82
2018-08-28 06:00:00 22.3 10 Sudoeste 21 Sudoeste 0 -- -- 83
2018-08-28 05:00:00 22.8 16 Sudoeste 27 Sur 0 -- -- 80
2018-08-28 04:00:00 23.6 19 Sur 32 Sudoeste 0 -- -- 76
2018-08-28 03:00:00 24.4 21 Sudoeste 37 Sudoeste 0 -- -- 73
2018-08-28 02:00:00 24.9 19 Sur 32 Sudoeste 0 -- -- 71
2018-08-28 01:00:00 26.1 19 Sudoeste 29 Sudoeste 0 -- -- 48
2018-08-28 00:00:00 27.2 17 Sudoeste 24 Sudoeste 0 -- -- 41
2018-08-27 23:00:00 28.3 13 Oeste 39 Oeste 0 -- -- 37
2018-08-27 22:00:00 31 29 Sudoeste 45 Sudoeste 0 -- -- 41
2018-08-27 21:00:00 32.9 23 Sudoeste 34 Sudoeste 0 -- -- 36
2018-08-27 20:00:00 34.9 20 Sudoeste 35 Sudoeste 0 -- -- 30
2018-08-27 19:00:00 38.1 14 Noroeste 31 Este 0 -- -- 19
2018-08-27 18:00:00 38.2 18 Nordeste 34 Nordeste 0 -- -- 20
2018-08-27 17:00:00 37.2 22 Nordeste 35 Norte 0 -- -- 22
2018-08-27 16:00:00 34.7 22 Norte 34 Norte 0 -- -- 25
2018-08-27 15:00:00 34.7 21 Norte 34 Norte 0 -- -- 26
2018-08-27 14:00:00 29.5 13 Nordeste 28 Nordeste 0 -- -- 34
2018-08-27 13:00:00 27.4 5 Oeste 22 Norte 0 -- -- 39
2018-08-27 12:00:00 24.8 15 Norte 28 Este 0 -- -- 44
2018-08-27 11:00:00 23.8 13 Nordeste 28 Nordeste 0 -- -- 43
2018-08-27 10:00:00 22.9 12 Nordeste 20 Nordeste 0 -- -- 47
2018-08-27 09:00:00 20.5 8 Este 11 Este 0 -- -- 54
2018-08-27 08:00:00 19 7 Sur 10 Sur 0 -- -- 64
2018-08-27 07:00:00 19.9 0 Calma 8 Norte 0 -- -- 59
2018-08-27 06:00:00 20.3 4 Nordeste 9 Nordeste 0 -- -- 58
2018-08-27 05:00:00 21.1 2 Noroeste 5 Norte 0 -- -- 52
2018-08-27 04:00:00 21.8 4 Sudoeste 12 Este 0 -- -- 51
2018-08-27 03:00:00 22.5 4 Este 9 Este 0 -- -- 46
2018-08-27 02:00:00 24 5 Sudeste 9 Sudeste 0 -- -- 38
2018-08-27 01:00:00 24.9 6 Sudeste 9 Sur 0 -- -- 34
2018-08-27 00:00:00 27.2 5 Nordeste 20 Norte 0 -- -- 34
2018-08-26 23:00:00 28.8 6 Norte 14 Norte 0 -- -- 24
2018-08-26 22:00:00 30.3 9 Norte 12 Norte 0 -- -- 21
2018-08-26 21:00:00 33.5 9 Norte 16 Oeste 0 -- -- 19
2018-08-26 20:00:00 36.3 12 Noroeste 23 Oeste 0 -- -- 19
2018-08-26 19:00:00 36.7 15 Sudoeste 23 Sudoeste 0 -- -- 17
2018-08-26 18:00:00 37.4 12 Sudoeste 21 Sur 0 -- -- 14
2018-08-26 17:00:00 37 8 Sudoeste 21 Sudoeste 0 -- -- 15
2018-08-26 16:00:00 35.8 15 Sudoeste 23 Sudoeste 0 -- -- 19
2018-08-26 15:00:00 35.2 14 Sudoeste 17 Sudoeste 0 -- -- 15
2018-08-26 14:00:00 34 7 Oeste 14 Sudoeste 0 -- -- 16
2018-08-26 13:00:00 30.4 6 Oeste 11 Oeste 0 -- -- 28
2018-08-26 12:00:00 27.1 7 Oeste 11 Oeste 0 -- -- 43
2018-08-26 11:00:00 23.2 6 Oeste 9 Oeste 0 -- -- 57
2018-08-26 10:00:00 21 3 Sur 7 Sudoeste 0 -- -- 61
2018-08-26 09:00:00 17.1 3 Nordeste 6 Este 0 -- -- 75
2018-08-26 08:00:00 15.2 5 Este 6 Nordeste 0 -- -- 78
2018-08-26 07:00:00 16.9 2 Norte 8 Nordeste 0 -- -- 69
2018-08-26 06:00:00 16.9 7 Nordeste 10 Nordeste 0 -- -- 70
2018-08-26 05:00:00 18 2 Nordeste 6 Norte 0 -- -- 67
2018-08-26 04:00:00 19.1 3 Norte 6 Norte 0 -- -- 63
2018-08-26 03:00:00 20.4 2 Este 6 Noroeste 0 -- -- 57
2018-08-26 02:00:00 21.1 5 Nordeste 10 Norte 0 -- -- 55
2018-08-26 01:00:00 22.9 7 Norte 24 Norte 0 -- -- 48
2018-08-26 00:00:00 24.8 5 Norte 14 Norte 0 -- -- 44
2018-08-25 23:00:00 27.1 11 Norte 19 Norte 0 -- -- 36
2018-08-25 22:00:00 29.7 13 Norte 23 Norte 0 -- -- 22
2018-08-25 21:00:00 32.5 15 Noroeste 24 Noroeste 0 -- -- 19
2018-08-25 20:00:00 35.1 16 Noroeste 28 Noroeste 0 -- -- 18
2018-08-25 19:00:00 35.9 17 Noroeste 30 Noroeste 0 -- -- 17
2018-08-25 18:00:00 36.9 16 Noroeste 30 Noroeste 0 -- -- 16
2018-08-25 17:00:00 37.3 16 Noroeste 28 Oeste 0 -- -- 18
2018-08-25 16:00:00 37 12 Sudoeste 20 Sudoeste 0 -- -- 15
2018-08-25 15:00:00 35.9 10 Oeste 17 Norte 0 -- -- 16
2018-08-25 14:00:00 34.3 13 Noroeste 28 Noroeste 0 -- -- 17
2018-08-25 13:00:00 32.9 11 Norte 20 Nordeste 0 -- -- 21
2018-08-25 12:00:00 30.3 11 Nordeste 22 Nordeste 0 -- -- 26
2018-08-25 11:00:00 26.7 7 Norte 14 Norte 0 -- -- 31
2018-08-25 10:00:00 22.8 6 Norte 10 Norte 0 -- -- 42
2018-08-25 09:00:00 19.9 0 Calma 8 Norte 0 -- -- 51
2018-08-25 08:00:00 18 5 Nordeste 7 Norte 0 -- -- 55
2018-08-25 07:00:00 19 3 Norte 9 Norte 0 -- -- 58
2018-08-25 06:00:00 19.8 8 Norte 13 Norte 0 -- -- 50
2018-08-25 05:00:00 21.4 2 Nordeste 10 Norte 0 -- -- 46
2018-08-25 04:00:00 22.1 8 Nordeste 12 Norte 0 -- -- 43
2018-08-25 03:00:00 23.3 9 Nordeste 13 Norte 0 -- -- 41
2018-08-25 02:00:00 25.3 4 Norte 15 Norte 0 -- -- 37
2018-08-25 01:00:00 27 12 Norte 26 Norte 0 -- -- 33
2018-08-25 00:00:00 28.9 15 Norte 28 Norte 0 -- -- 30